Time;durP1;ratioP1;P1;durP2;ratioP2;P2;SDS_P1;SDS_P2;PMS_P1;PMS_P2;Temp;Humidity;BMP_temperature;BMP_pressure;BME280_temperature;BME280_humidity;BME280_pressure;Samples;Min_cycle;Max_cycle;Signal;HPM_P1;HPM_P2
2022/01/22 00:01:03;;;;;;;;;;;;;;;-1.13;83.92;100909.97;5110275;28;19927;-67
2022/01/22 00:03:28;;;;;;;;;;;;;;;-1.09;83.12;100905.50;5110270;28;19911;-66
2022/01/22 00:05:54;;;;;;;;;;;;;;;-1.08;82.82;100901.94;5110826;28;19923;-66
2022/01/22 00:08:20;;;;;;;;;;;;;;;-1.04;82.20;100898.31;5110546;28;19929;-66
2022/01/22 00:10:45;;;;;;;;;;;;;;;-1.11;82.20;100896.78;5111399;28;20010;-68
2022/01/22 00:15:43;;;;;;;;;;;;;;;-1.05;81.58;100896.59;5111641;28;19919;-68
2022/01/22 00:18:08;;;;;;;;;;;;;;;-1.05;81.15;100893.97;5109317;28;19912;-68
2022/01/22 00:20:34;;;;;;;;;;;;;;;-1.12;81.64;100889.81;5093176;28;19915;-68
2022/01/22 00:22:59;;;;;;;;;;;;;;;-1.07;80.52;100880.84;5111395;28;19987;-68
2022/01/22 00:25:24;;;;;;;;;;;;;;;-1.14;80.96;100878.44;5109324;28;19907;-68
2022/01/22 00:27:50;;;;;;;;;;;;;;;-1.12;80.52;100884.53;5111260;28;20320;-68
2022/01/22 00:30:17;;;;;;;;;;;;;;;-1.05;79.58;100886.94;5111362;28;19958;-66
2022/01/22 00:32:43;;;;;;;;;;;;;;;-1.07;79.53;100891.38;5090486;28;19911;-66
2022/01/22 00:35:08;;;;;;;;;;;;;;;-1.05;79.32;100883.44;5111239;28;19912;-67
2022/01/22 00:37:34;;;;;;;;;;;;;;;-1.10;79.24;100899.38;5110973;28;20413;-66
2022/01/22 00:40:03;;;;;;;;;;;;;;;-1.01;78.72;100899.09;5110878;28;19914;-66
2022/01/22 00:42:28;;;;;;;;;;;;;;;-0.98;78.00;100898.97;5090502;28;19911;-66
2022/01/22 00:44:53;;;;;;;;;;;;;;;-0.89;77.39;100911.88;5092577;28;19975;-66
2022/01/22 00:47:19;;;;;;;;;;;;;;;-0.92;77.19;100904.06;5109650;28;20060;-68
2022/01/22 00:49:44;;;;;;;;;;;;;;;-0.89;77.14;100901.31;5091175;28;19943;-68
2022/01/22 00:52:10;;;;;;;;;;;;;;;-0.90;76.66;100896.13;5110967;28;19972;-68
2022/01/22 00:54:35;;;;;;;;;;;;;;;-0.88;76.35;100899.53;5109191;28;20364;-68
2022/01/22 00:57:01;;;;;;;;;;;;;;;-0.87;76.02;100886.31;5107585;28;19946;-68
2022/01/22 00:59:26;;;;;;;;;;;;;;;-0.88;75.61;100891.63;5109698;28;19915;-68
2022/01/22 01:01:51;;;;;;;;;;;;;;;-0.82;75.36;100888.81;5091088;28;19915;-66
2022/01/22 01:04:16;;;;;;;;;;;;;;;-0.82;75.13;100894.94;5091704;28;19923;-66
2022/01/22 01:06:42;;;;;;;;;;;;;;;-0.73;74.07;100880.63;5092344;28;20004;-67
2022/01/22 01:09:09;;;;;;;;;;;;;;;-0.81;74.25;100874.75;5110573;28;19915;-66
2022/01/22 01:11:39;;;;;;;;;;;;;;;-0.81;74.68;100882.66;5093267;28;20375;-66
2022/01/22 01:14:07;;;;;;;;;;;;;;;-0.83;73.77;100872.19;5110042;28;19920;-66
2022/01/22 01:32:54;;;;;;;;;;;;;;;-0.47;69.60;100870.06;5109361;28;20614;-66
2022/01/22 01:35:20;;;;;;;;;;;;;;;-0.46;68.80;100866.50;5092723;28;20375;-66
2022/01/22 01:37:45;;;;;;;;;;;;;;;-0.34;68.30;100852.94;5111389;28;19911;-66
2022/01/22 01:40:13;;;;;;;;;;;;;;;-0.29;67.79;100861.53;5111369;28;19915;-67
2022/01/22 01:45:10;;;;;;;;;;;;;;;-0.27;67.26;100852.66;5090880;28;20280;-68
2022/01/22 01:47:37;;;;;;;;;;;;;;;-0.27;67.03;100844.75;5090881;28;19912;-66
2022/01/22 01:50:03;;;;;;;;;;;;;;;-0.20;66.83;100845.38;5092235;28;19923;-68
2022/01/22 01:52:43;;;;;;;;;;;;;;;-0.16;66.81;100844.38;5093479;28;20003;-66
2022/01/22 01:55:17;;;;;;;;;;;;;;;-0.12;66.18;100840.72;5094336;28;19916;-66
2022/01/22 01:57:43;;;;;;;;;;;;;;;0.01;65.53;100844.63;5090651;28;20014;-66
2022/01/22 02:00:23;;;;;;;;;;;;;;;0.03;65.66;100846.28;5092023;28;20356;-66
2022/01/22 02:02:49;;;;;;;;;;;;;;;0.04;65.83;100847.16;5095132;28;19998;-67
2022/01/22 02:05:15;;;;;;;;;;;;;;;0.07;65.58;100838.25;5114199;28;20046;-66
2022/01/22 02:07:42;;;;;;;;;;;;;;;0.06;65.86;100831.28;5100377;28;20291;-66
2022/01/22 02:10:08;;;;;;;;;;;;;;;0.10;65.13;100827.59;5114874;28;19934;-66
2022/01/22 02:23:35;;;;;;;;;;;;;;;0.01;65.30;100802.44;5115264;28;19915;-66
2022/01/22 02:26:01;;;;;;;;;;;;;;;-0.05;65.35;100795.63;5114834;28;20328;-66
2022/01/22 02:28:26;;;;;;;;;;;;;;;-0.07;65.83;100792.16;5114504;28;19917;-66
2022/01/22 02:30:58;;;;;;;;;;;;;;;-0.09;66.06;100783.44;5113676;28;19915;-66
2022/01/22 02:33:40;;;;;;;;;;;;;;;-0.08;65.91;100785.19;5093795;28;19969;-66
2022/01/22 02:36:31;;;;;;;;;;;;;;;-0.09;65.74;100772.06;5113805;28;19907;-67
2022/01/22 02:39:03;;;;;;;;;;;;;;;-0.10;65.98;100760.66;5114202;28;20441;-66
2022/01/22 02:41:29;;;;;;;;;;;;;;;-0.10;66.22;100751.88;5113292;28;19911;-66
2022/01/22 02:43:55;;;;;;;;;;;;;;;-0.09;66.70;100750.97;5112151;28;19911;-66
2022/01/22 02:46:23;;;;;;;;;;;;;;;-0.09;66.85;100745.72;5113924;28;19923;-66
2022/01/22 02:48:48;;;;;;;;;;;;;;;-0.09;66.72;100740.44;5113110;28;19944;-66
2022/01/22 02:51:14;;;;;;;;;;;;;;;-0.09;66.58;100732.53;5114060;28;19920;-66
2022/01/22 02:53:39;;;;;;;;;;;;;;;-0.07;66.36;100743.84;5104827;28;20465;-66
2022/01/22 02:56:04;;;;;;;;;;;;;;;-0.06;66.59;100743.78;5114324;28;20260;-66
2022/01/22 02:58:30;;;;;;;;;;;;;;;-0.04;65.89;100730.56;5114188;28;20023;-66
2022/01/22 03:00:55;;;;;;;;;;;;;;;-0.06;65.97;100729.78;5114163;28;20315;-66
2022/01/22 03:03:21;;;;;;;;;;;;;;;-0.05;66.18;100726.22;5094965;28;19998;-66
2022/01/22 03:05:46;;;;;;;;;;;;;;;-0.05;66.24;100718.31;5095223;28;19911;-66
2022/01/22 03:08:13;;;;;;;;;;;;;;;-0.04;66.12;100715.63;5095649;28;19912;-67
2022/01/22 03:10:39;;;;;;;;;;;;;;;-0.07;66.46;100718.38;5094976;28;20010;-66
2022/01/22 03:15:55;;;;;;;;;;;;;;;0.01;65.81;100691.72;5112031;28;19923;-66
2022/01/22 03:19:07;;;;;;;;;;;;;;;0.01;66.09;100691.72;5111402;28;19924;-66
2022/01/22 03:21:25;;;;;;;;;;;;;;;0.06;65.56;100681.81;5107302;28;19938;-67
2022/01/22 03:29:30;;;;;;;;;;;;;;;0.09;65.29;100681.72;5113950;28;20390;-67
2022/01/22 03:31:55;;;;;;;;;;;;;;;0.21;65.42;100683.00;5094460;28;20663;-66
2022/01/22 03:34:21;;;;;;;;;;;;;;;0.14;65.29;100679.75;5094281;28;19928;-66
2022/01/22 03:36:46;;;;;;;;;;;;;;;0.15;65.42;100676.19;5109152;27;19911;-66
2022/01/22 03:39:11;;;;;;;;;;;;;;;0.12;65.23;100665.78;5113372;28;19964;-67
2022/01/22 03:41:37;;;;;;;;;;;;;;;0.05;65.45;100651.13;5090417;28;20411;-66
2022/01/22 03:44:04;;;;;;;;;;;;;;;0.06;65.46;100642.28;5092874;28;19912;-66
2022/01/22 03:46:30;;;;;;;;;;;;;;;0.07;65.67;100641.38;5092685;28;20418;-67
2022/01/22 03:48:55;;;;;;;;;;;;;;;0.03;65.52;100633.66;5088481;28;19915;-66
2022/01/22 03:51:20;;;;;;;;;;;;;;;0.01;65.91;100631.06;5112908;28;19916;-66
2022/01/22 03:53:46;;;;;;;;;;;;;;;-0.04;66.03;100622.47;5113349;28;19931;-66
2022/01/22 03:56:12;;;;;;;;;;;;;;;-0.05;66.17;100637.47;5113092;28;20023;-66
2022/01/22 03:58:39;;;;;;;;;;;;;;;0.10;65.48;100629.84;5106560;28;19920;-67
2022/01/22 04:04:12;;;;;;;;;;;;;;;0.11;65.23;100611.31;5104212;28;19957;-67
2022/01/22 04:09:07;;;;;;;;;;;;;;;0.06;65.83;100602.72;5111346;28;19911;-66
2022/01/22 04:11:36;;;;;;;;;;;;;;;0.09;65.85;100599.13;5113107;28;19918;-66
2022/01/22 04:14:04;;;;;;;;;;;;;;;0.01;66.13;100610.00;5111928;28;19916;-66
2022/01/22 04:16:30;;;;;;;;;;;;;;;0.08;66.01;100618.50;5112677;28;20007;-66
2022/01/22 04:24:52;;;;;;;;;;;;;;;0.08;65.93;100619.34;5111691;28;20264;-67
2022/01/22 04:27:23;;;;;;;;;;;;;;;0.07;65.71;100614.16;5112495;28;19908;-67
2022/01/22 04:29:48;;;;;;;;;;;;;;;0.10;65.59;100611.38;5112019;28;19923;-68
2022/01/22 04:32:13;;;;;;;;;;;;;;;0.01;66.02;100617.91;5111775;28;19933;-66
2022/01/22 04:34:39;;;;;;;;;;;;;;;-0.01;66.07;100614.44;5110322;28;19911;-66
2022/01/22 04:37:04;;;;;;;;;;;;;;;-0.09;66.26;100612.13;5094114;28;19907;-66
2022/01/22 04:39:30;;;;;;;;;;;;;;;-0.05;66.28;100607.59;5110334;28;19982;-66
2022/01/22 04:41:56;;;;;;;;;;;;;;;0.02;66.13;100609.06;5108066;28;19912;-67
2022/01/22 04:44:25;;;;;;;;;;;;;;;-0.04;66.43;100606.66;5103129;28;20354;-66
2022/01/22 04:46:59;;;;;;;;;;;;;;;-0.08;67.50;100600.69;5073580;28;19908;-67
2022/01/22 04:57:18;;;;;;;;;;;;;;;-0.11;75.81;100592.88;5110885;28;20353;-66
2022/01/22 04:59:44;;;;;;;;;;;;;;;-0.15;76.66;100601.84;5092336;28;19911;-67
2022/01/22 05:02:09;;;;;;;;;;;;;;;-0.15;77.77;100603.63;5091691;28;19916;-66
2022/01/22 05:04:35;;;;;;;;;;;;;;;-0.10;78.39;100593.72;5109378;28;20031;-66
2022/01/22 05:07:00;;;;;;;;;;;;;;;-0.13;78.70;100599.13;5095440;28;19920;-66
2022/01/22 05:09:25;;;;;;;;;;;;;;;-0.21;79.13;100595.94;5098228;28;20310;-67
2022/01/22 05:11:51;;;;;;;;;;;;;;;-0.18;79.49;100588.78;5117164;27;19911;-67
2022/01/22 05:14:16;;;;;;;;;;;;;;;-0.23;79.55;100584.59;5108577;28;20029;-66
2022/01/22 05:16:42;;;;;;;;;;;;;;;-0.30;79.95;100572.59;5093316;28;20026;-66
2022/01/22 05:19:24;;;;;;;;;;;;;;;-0.32;79.96;100585.81;5110178;28;20386;-66
2022/01/22 05:21:52;;;;;;;;;;;;;;;-0.35;80.16;100583.31;5111736;28;19912;-66
2022/01/22 05:24:22;;;;;;;;;;;;;;;-0.42;79.87;100573.94;5111512;28;20025;-67
2022/01/22 05:27:20;;;;;;;;;;;;;;;-0.47;79.39;100583.81;5091344;28;19916;-66
2022/01/22 05:37:34;;;;;;;;;;;;;;;-0.50;77.80;100599.72;5110215;28;19918;-68
2022/01/22 05:40:00;;;;;;;;;;;;;;;-0.48;78.04;100600.50;5109253;28;19915;-68
2022/01/22 05:42:25;;;;;;;;;;;;;;;-0.49;77.98;100597.94;5111932;28;19908;-68
2022/01/22 05:44:51;;;;;;;;;;;;;;;-0.47;78.75;100590.84;5111966;28;19912;-68
2022/01/22 05:47:22;;;;;;;;;;;;;;;-0.43;80.90;100595.06;5107304;28;19933;-68
2022/01/22 05:49:47;;;;;;;;;;;;;;;-0.36;84.64;100588.63;5109593;28;19916;-68
2022/01/22 05:52:19;;;;;;;;;;;;;;;-0.31;87.62;100587.56;5112086;28;20002;-68
2022/01/22 05:59:53;;;;;;;;;;;;;;;-0.44;91.68;100583.69;5112072;28;20341;-68
2022/01/22 06:02:19;;;;;;;;;;;;;;;-0.41;92.54;100585.34;5110178;28;19912;-68
2022/01/22 06:04:44;;;;;;;;;;;;;;;-0.41;93.35;100602.00;5093390;28;19907;-68
2022/01/22 06:07:10;;;;;;;;;;;;;;;-0.51;94.14;100605.06;5111666;28;19977;-68
2022/01/22 06:09:44;;;;;;;;;;;;;;;-0.50;95.09;100598.84;5111539;28;20011;-68
2022/01/22 06:14:38;;;;;;;;;;;;;;;-0.47;96.94;100596.97;5111912;28;20007;-68
2022/01/22 06:17:03;;;;;;;;;;;;;;;-0.47;97.57;100602.25;5089493;28;20013;-68
2022/01/22 06:19:29;;;;;;;;;;;;;;;-0.52;98.11;100587.50;5091604;28;20398;-68
2022/01/22 06:21:54;;;;;;;;;;;;;;;-0.48;99.07;100599.66;5108799;28;19934;-68
2022/01/22 06:24:21;;;;;;;;;;;;;;;-0.45;99.68;100595.13;5111262;28;19915;-68
2022/01/22 06:26:46;;;;;;;;;;;;;;;-0.38;100.00;100601.88;5098109;28;19956;-68
2022/01/22 06:29:11;;;;;;;;;;;;;;;-0.34;100.00;100597.34;5093083;28;20572;-68
2022/01/22 06:31:37;;;;;;;;;;;;;;;-0.29;100.00;100604.16;5105739;28;19915;-68
2022/01/22 06:34:03;;;;;;;;;;;;;;;-0.29;100.00;100604.16;5111215;28;19912;-68
2022/01/22 06:36:28;;;;;;;;;;;;;;;-0.14;100.00;100600.06;5088537;28;19934;-69
2022/01/22 06:38:58;;;;;;;;;;;;;;;-0.10;100.00;100605.13;5091564;28;20376;-68
2022/01/22 06:44:08;;;;;;;;;;;;;;;0.02;100.00;100595.88;5105232;28;19950;-68
2022/01/22 06:46:33;;;;;;;;;;;;;;;0.04;100.00;100588.78;5105893;28;20299;-68
2022/01/22 06:48:59;;;;;;;;;;;;;;;0.08;100.00;100598.28;5094958;28;19919;-68
2022/01/22 06:51:26;;;;;;;;;;;;;;;0.07;100.00;100591.28;5076630;28;19916;-68
2022/01/22 06:53:52;;;;;;;;;;;;;;;0.13;100.00;100592.81;5094498;28;19995;-68
2022/01/22 06:56:24;;;;;;;;;;;;;;;0.19;100.00;100582.00;5094731;28;19961;-69
2022/01/22 06:58:51;;;;;;;;;;;;;;;0.27;100.00;100593.97;5078850;28;20003;-69
2022/01/22 07:01:16;;;;;;;;;;;;;;;0.21;100.00;100591.56;5107803;28;19911;-69
2022/01/22 07:03:41;;;;;;;;;;;;;;;0.18;100.00;100602.25;5098374;28;19935;-70
2022/01/22 07:06:07;;;;;;;;;;;;;;;0.21;100.00;100598.63;5091220;28;19914;-70
2022/01/22 07:08:32;;;;;;;;;;;;;;;0.25;100.00;100605.50;5076169;28;19956;-68
2022/01/22 07:10:58;;;;;;;;;;;;;;;0.25;100.00;100608.13;5093754;28;19911;-67
2022/01/22 07:13:23;;;;;;;;;;;;;;;0.25;100.00;100616.88;5075318;28;19973;-68
2022/01/22 07:15:49;;;;;;;;;;;;;;;0.34;100.00;100616.50;5088386;28;19912;-67
2022/01/22 07:18:14;;;;;;;;;;;;;;;0.26;100.00;100623.03;5110051;28;19926;-67
2022/01/22 07:20:41;;;;;;;;;;;;;;;0.27;100.00;100622.97;5104330;28;19950;-67
2022/01/22 07:25:58;;;;;;;;;;;;;;;0.32;100.00;100610.44;5090281;28;19969;-67
2022/01/22 07:28:23;;;;;;;;;;;;;;;0.35;100.00;100623.50;5093606;28;20388;-67
2022/01/22 07:30:49;;;;;;;;;;;;;;;0.47;100.00;100619.47;5112039;28;19919;-67
2022/01/22 07:33:14;;;;;;;;;;;;;;;0.48;100.00;100624.69;5113648;28;19915;-68
2022/01/22 07:35:40;;;;;;;;;;;;;;;0.53;100.00;100627.16;5113683;28;19912;-67
2022/01/22 07:38:05;;;;;;;;;;;;;;;0.50;100.00;100635.19;5113641;28;19912;-69
2022/01/22 07:40:31;;;;;;;;;;;;;;;0.53;100.00;100630.66;5112519;28;20802;-69
2022/01/22 07:42:56;;;;;;;;;;;;;;;0.51;100.00;100632.50;5114578;28;19911;-69
2022/01/22 07:45:21;;;;;;;;;;;;;;;0.51;100.00;100645.69;5099129;28;20356;-69
2022/01/22 07:47:47;;;;;;;;;;;;;;;0.49;100.00;100652.81;5093838;28;19927;-69
2022/01/22 07:50:12;;;;;;;;;;;;;;;0.57;100.00;100661.25;5093491;28;19916;-70
2022/01/22 07:52:37;;;;;;;;;;;;;;;0.69;100.00;100649.31;5084424;28;19927;-69
2022/01/22 07:55:03;;;;;;;;;;;;;;;0.83;100.00;100637.25;5114337;28;19912;-69
2022/01/22 07:57:29;;;;;;;;;;;;;;;0.82;100.00;100642.59;5113824;28;19907;-69
2022/01/22 07:59:54;;;;;;;;;;;;;;;0.77;100.00;100640.16;5112994;28;19922;-69
2022/01/22 08:02:19;;;;;;;;;;;;;;;0.78;100.00;100639.25;5114144;28;20622;-70
2022/01/22 08:04:44;;;;;;;;;;;;;;;0.79;100.00;100640.97;5092608;28;20052;-69
2022/01/22 08:07:10;;;;;;;;;;;;;;;0.87;100.00;100641.47;5094668;28;19919;-69
2022/01/22 08:09:35;;;;;;;;;;;;;;;0.84;100.00;100651.31;5095660;28;19907;-70
2022/01/22 08:12:01;;;;;;;;;;;;;;;0.87;100.00;100654.66;5113848;28;19915;-70
2022/01/22 08:14:26;;;;;;;;;;;;;;;0.94;100.00;100660.56;5107380;28;20362;-69
2022/01/22 08:16:52;;;;;;;;;;;;;;;1.01;100.00;100644.41;5075002;28;20348;-69
2022/01/22 08:19:17;;;;;;;;;;;;;;;1.03;100.00;100652.25;5093994;28;19912;-70
2022/01/22 08:21:44;;;;;;;;;;;;;;;1.01;100.00;100633.84;5111210;28;19956;-69
2022/01/22 08:24:10;;;;;;;;;;;;;;;0.98;100.00;100636.59;5113702;28;19915;-69
2022/01/22 08:26:40;;;;;;;;;;;;;;;1.02;100.00;100653.16;5113539;28;20449;-69
2022/01/22 08:29:05;;;;;;;;;;;;;;;0.99;100.00;100667.34;5111879;28;19908;-69
2022/01/22 08:36:42;;;;;;;;;;;;;;;1.11;100.00;100679.16;5093453;28;19919;-70
2022/01/22 08:39:07;;;;;;;;;;;;;;;1.15;100.00;100689.53;5091864;28;19912;-70
2022/01/22 08:41:33;;;;;;;;;;;;;;;1.14;100.00;100685.19;5104710;28;19961;-69
2022/01/22 08:43:59;;;;;;;;;;;;;;;1.19;100.00;100690.28;5099309;28;20379;-69
2022/01/22 08:46:25;;;;;;;;;;;;;;;1.39;100.00;100677.03;5112818;28;19915;-69
2022/01/22 08:48:50;;;;;;;;;;;;;;;1.38;100.00;100692.03;5113230;28;19911;-70
2022/01/22 08:51:15;;;;;;;;;;;;;;;1.37;100.00;100697.38;5112954;28;19915;-70
2022/01/22 08:53:41;;;;;;;;;;;;;;;1.43;100.00;100697.09;5111858;28;19912;-70
2022/01/22 08:56:08;;;;;;;;;;;;;;;1.46;100.00;100696.97;5112997;28;19994;-70
2022/01/22 08:58:33;;;;;;;;;;;;;;;1.50;100.00;100696.75;5108100;28;19927;-69
2022/01/22 09:00:59;;;;;;;;;;;;;;;1.56;100.00;100690.34;5092256;28;19963;-70
2022/01/22 09:03:25;;;;;;;;;;;;;;;1.58;100.00;100699.91;5101688;28;19918;-70
2022/01/22 09:05:51;;;;;;;;;;;;;;;1.66;100.00;100702.22;5093959;28;20386;-70
2022/01/22 09:08:16;;;;;;;;;;;;;;;1.65;99.81;100700.50;5107129;27;19907;-70
2022/01/22 09:10:42;;;;;;;;;;;;;;;1.71;100.00;100710.81;5096254;28;19911;-70
2022/01/22 09:13:07;;;;;;;;;;;;;;;1.74;100.00;100705.38;5092114;28;20387;-69
2022/01/22 09:15:33;;;;;;;;;;;;;;;1.86;98.13;100710.06;5108901;28;19919;-70
2022/01/22 09:17:58;;;;;;;;;;;;;;;1.80;98.35;100713.00;5112387;28;19917;-69
2022/01/22 09:23:05;;;;;;;;;;;;;;;1.79;98.78;100721.88;5112568;28;19952;-70
2022/01/22 09:25:30;;;;;;;;;;;;;;;1.77;97.74;100726.34;5111887;28;19952;-70
2022/01/22 09:27:56;;;;;;;;;;;;;;;1.77;97.49;100721.94;5105184;28;20289;-70
2022/01/22 09:30:21;;;;;;;;;;;;;;;1.84;96.91;100726.00;5073816;28;19908;-70
2022/01/22 09:32:47;;;;;;;;;;;;;;;1.83;95.55;100724.31;5096504;28;19950;-70
2022/01/22 09:35:12;;;;;;;;;;;;;;;1.91;94.99;100724.78;5112131;28;19951;-70
2022/01/22 09:37:38;;;;;;;;;;;;;;;1.98;93.92;100734.19;5078971;28;20003;-70
2022/01/22 09:40:04;;;;;;;;;;;;;;;1.96;91.97;100725.47;5092103;28;20367;-70
2022/01/22 09:42:29;;;;;;;;;;;;;;;2.01;90.56;100731.41;5092074;28;19926;-70
2022/01/22 09:44:54;;;;;;;;;;;;;;;2.09;89.47;100725.72;5092134;28;19919;-69
2022/01/22 09:47:21;;;;;;;;;;;;;;;2.11;87.98;100723.88;5112255;28;20426;-70
2022/01/22 09:49:46;;;;;;;;;;;;;;;2.16;86.71;100730.66;5111593;28;19923;-70
2022/01/22 09:52:12;;;;;;;;;;;;;;;2.20;86.40;100737.53;5094733;28;19912;-70
2022/01/22 09:54:37;;;;;;;;;;;;;;;2.20;86.50;100731.41;5091579;28;19919;-71
2022/01/22 09:57:04;;;;;;;;;;;;;;;2.22;86.06;100732.16;5111055;28;19946;-70
2022/01/22 09:59:29;;;;;;;;;;;;;;;2.28;84.76;100724.81;5089208;28;20296;-70
2022/01/22 10:02:12;;;;;;;;;;;;;;;2.31;82.76;100723.78;5073617;28;19912;-70
2022/01/22 10:04:39;;;;;;;;;;;;;;;2.36;81.30;100724.44;5091993;28;19919;-70
2022/01/22 10:07:04;;;;;;;;;;;;;;;2.38;81.08;100722.56;5073243;28;19912;-70
2022/01/22 10:09:46;;;;;;;;;;;;;;;2.38;79.96;100720.78;5091420;28;19999;-70
2022/01/22 10:12:12;;;;;;;;;;;;;;;2.42;79.69;100720.63;5097871;28;19999;-70
2022/01/22 10:14:56;;;;;;;;;;;;;;;2.44;80.10;100719.63;5074456;28;20003;-71
2022/01/22 10:17:40;;;;;;;;;;;;;;;2.52;80.63;100721.91;5106207;28;20417;-70
2022/01/22 10:20:26;;;;;;;;;;;;;;;2.59;80.16;100728.63;5112256;28;19908;-71
2022/01/22 10:22:53;;;;;;;;;;;;;;;2.68;78.82;100744.06;5096163;28;19908;-71
2022/01/22 10:25:19;;;;;;;;;;;;;;;2.76;78.55;100739.22;5116026;28;19943;-71
2022/01/22 10:27:48;;;;;;;;;;;;;;;2.82;78.15;100742.44;5114457;28;19961;-70
2022/01/22 10:30:18;;;;;;;;;;;;;;;2.90;76.23;100750.03;5081919;28;19966;-70
2022/01/22 10:35:16;;;;;;;;;;;;;;;2.98;73.08;100745.19;5107195;27;20725;-70
2022/01/22 10:37:41;;;;;;;;;;;;;;;3.03;72.07;100751.13;5115959;28;19915;-70
2022/01/22 10:40:28;;;;;;;;;;;;;;;3.05;72.12;100747.44;5115799;28;19907;-70
2022/01/22 10:43:31;;;;;;;;;;;;;;;3.08;71.66;100746.44;5115879;28;19934;-70
2022/01/22 10:45:59;;;;;;;;;;;;;;;3.10;71.82;100741.94;4977002;28;19913;-71
2022/01/22 10:48:24;;;;;;;;;;;;;;;3.14;71.66;100747.00;5077015;28;19915;-70
2022/01/22 10:51:06;;;;;;;;;;;;;;;3.21;71.56;100755.47;5110868;28;20138;-70
2022/01/22 10:53:36;;;;;;;;;;;;;;;3.27;70.48;100756.03;5114968;28;19908;-71
2022/01/22 10:56:03;;;;;;;;;;;;;;;3.33;68.82;100754.84;5095322;28;19912;-70
2022/01/22 10:58:28;;;;;;;;;;;;;;;3.34;66.85;100748.63;5087736;28;20703;-70
2022/01/22 11:00:58;;;;;;;;;;;;;;;3.36;66.17;100752.94;5097079;28;19908;-70
2022/01/22 11:03:25;;;;;;;;;;;;;;;3.37;65.82;100754.63;5086066;28;20379;-70
2022/01/22 11:05:50;;;;;;;;;;;;;;;3.38;64.69;100747.50;5103168;28;19953;-70
2022/01/22 11:08:16;;;;;;;;;;;;;;;3.40;64.88;100745.66;5115160;28;19911;-70
2022/01/22 11:10:43;;;;;;;;;;;;;;;3.41;64.60;100742.91;5115574;28;19907;-70
2022/01/22 11:13:08;;;;;;;;;;;;;;;3.40;64.10;100745.66;5096091;28;19920;-69
2022/01/22 11:15:34;;;;;;;;;;;;;;;3.44;64.05;100761.31;5096281;28;19958;-66
2022/01/22 11:18:00;;;;;;;;;;;;;;;3.45;63.02;100764.84;5090336;28;19960;-66
2022/01/22 11:20:26;;;;;;;;;;;;;;;3.46;62.02;100761.25;5110972;28;20304;-66
2022/01/22 11:22:52;;;;;;;;;;;;;;;3.50;61.32;100752.19;5094062;28;19918;-66
2022/01/22 11:25:19;;;;;;;;;;;;;;;3.48;62.00;100746.97;5113856;28;19980;-67
2022/01/22 11:27:46;;;;;;;;;;;;;;;3.51;62.33;100751.28;5112630;28;20307;-66
2022/01/22 11:30:13;;;;;;;;;;;;;;;3.55;61.77;100758.97;5111902;28;19916;-66
2022/01/22 11:33:10;;;;;;;;;;;;;;;3.60;62.15;100758.72;5112810;28;19923;-67
2022/01/22 11:35:42;;;;;;;;;;;;;;;3.65;61.43;100756.69;5056603;28;19907;-66
2022/01/22 11:38:09;;;;;;;;;;;;;;;3.68;60.20;100761.84;5113464;28;19987;-66
2022/01/22 11:40:35;;;;;;;;;;;;;;;3.68;59.68;100757.38;5111489;28;19914;-66
2022/01/22 11:43:06;;;;;;;;;;;;;;;3.71;60.62;100767.00;5112175;28;19911;-67
2022/01/22 11:45:34;;;;;;;;;;;;;;;3.71;59.13;100773.13;5113425;28;19914;-66
2022/01/22 11:48:09;;;;;;;;;;;;;;;3.70;58.79;100776.72;5107518;27;20725;-66
2022/01/22 11:50:35;;;;;;;;;;;;;;;3.69;57.01;100771.50;5097632;28;19916;-66
2022/01/22 11:53:19;;;;;;;;;;;;;;;3.69;58.25;100779.47;5089744;28;19923;-67
2022/01/22 11:56:04;;;;;;;;;;;;;;;3.71;56.96;100782.91;5109488;28;19922;-67
2022/01/22 11:58:29;;;;;;;;;;;;;;;3.71;57.37;100777.59;5084683;28;19939;-66
2022/01/22 12:00:54;;;;;;;;;;;;;;;3.72;57.36;100781.97;5113180;28;19911;-66
2022/01/22 12:03:20;;;;;;;;;;;;;;;3.77;57.07;100787.91;5111846;28;19920;-67
2022/01/22 12:05:54;;;;;;;;;;;;;;;3.77;57.10;100791.38;5111755;28;19923;-67
2022/01/22 12:08:20;;;;;;;;;;;;;;;3.80;56.15;100791.22;5113021;28;20026;-66
2022/01/22 12:16:36;;;;;;;;;;;;;;;3.93;55.59;100797.59;5100977;28;19918;-66
2022/01/22 12:19:03;;;;;;;;;;;;;;;3.96;54.84;100791.25;5094248;28;19956;-66
2022/01/22 12:23:56;;;;;;;;;;;;;;;4.08;54.82;100787.97;5112752;28;20364;-66
2022/01/22 12:26:40;;;;;;;;;;;;;;;4.09;54.91;100795.84;5089457;28;19927;-67
2022/01/22 12:29:24;;;;;;;;;;;;;;;4.12;54.44;100789.50;5091869;28;19911;-67
2022/01/22 12:32:16;;;;;;;;;;;;;;;4.20;52.99;100801.41;5070406;28;19912;-67
2022/01/22 12:35:13;;;;;;;;;;;;;;;4.18;52.99;100789.19;5095076;28;19918;-67
2022/01/22 12:37:42;;;;;;;;;;;;;;;4.17;53.08;100803.41;5089267;28;20566;-67
2022/01/22 12:40:08;;;;;;;;;;;;;;;4.14;52.34;100798.25;5097718;28;19959;-67
2022/01/22 12:42:51;;;;;;;;;;;;;;;4.13;52.94;100802.69;5096987;28;19919;-70
2022/01/22 12:45:17;;;;;;;;;;;;;;;4.15;51.73;100794.66;5101493;28;19961;-67
2022/01/22 12:47:47;;;;;;;;;;;;;;;4.18;51.62;100810.41;5110384;28;19923;-67
2022/01/22 12:50:13;;;;;;;;;;;;;;;4.19;52.09;100809.47;5110921;28;19923;-67
2022/01/22 12:52:41;;;;;;;;;;;;;;;4.24;51.76;100807.44;5087747;28;19912;-66
2022/01/22 12:55:22;;;;;;;;;;;;;;;4.24;51.49;100804.78;5096582;27;19918;-67
2022/01/22 12:57:47;;;;;;;;;;;;;;;4.23;51.52;100803.06;5107373;28;20026;-67
2022/01/22 13:00:16;;;;;;;;;;;;;;;4.23;51.79;100798.59;5112078;28;20607;-67
2022/01/22 13:02:41;;;;;;;;;;;;;;;4.25;51.71;100802.03;5092055;28;19923;-67
2022/01/22 13:05:07;;;;;;;;;;;;;;;4.28;51.27;100804.53;5100402;28;19927;-67
2022/01/22 13:07:40;;;;;;;;;;;;;;;4.25;51.46;100793.22;5071996;28;19918;-67
2022/01/22 13:10:07;;;;;;;;;;;;;;;4.31;50.72;100800.84;5080454;28;19931;-66
2022/01/22 13:12:34;;;;;;;;;;;;;;;4.32;50.56;100794.63;5102486;28;19942;-66
2022/01/22 13:15:00;;;;;;;;;;;;;;;4.27;49.51;100800.16;5098188;28;19912;-66
2022/01/22 13:17:29;;;;;;;;;;;;;;;4.38;48.79;100810.19;5098873;28;19912;-67
2022/01/22 13:19:55;;;;;;;;;;;;;;;4.34;49.16;100812.16;5099393;28;19930;-67
2022/01/22 13:22:28;;;;;;;;;;;;;;;4.35;50.04;100813.88;5100629;28;20014;-67
2022/01/22 13:25:01;;;;;;;;;;;;;;;4.33;49.69;100815.75;5107219;28;20260;-68
2022/01/22 13:27:27;;;;;;;;;;;;;;;4.37;47.61;100817.31;5095596;28;19926;-67
2022/01/22 13:29:56;;;;;;;;;;;;;;;4.34;46.87;100806.00;5097835;28;20006;-67
2022/01/22 13:35:26;;;;;;;;;;;;;;;4.40;46.63;100821.59;5104705;28;20367;-67
2022/01/22 13:40:43;;;;;;;;;;;;;;;4.33;44.60;100830.84;5104050;28;19912;-66
2022/01/22 13:48:48;;;;;;;;;;;;;;;4.33;42.67;100849.41;5103792;28;19918;-67
2022/01/22 13:51:14;;;;;;;;;;;;;;;4.32;41.43;100840.59;5100959;28;20306;-67
2022/01/22 13:53:40;;;;;;;;;;;;;;;4.26;41.77;100848.03;5100635;28;20382;-67
2022/01/22 13:56:11;;;;;;;;;;;;;;;4.21;40.67;100858.91;5097846;27;19920;-67
2022/01/22 13:58:37;;;;;;;;;;;;;;;4.18;41.68;100859.06;5087276;28;19923;-67
2022/01/22 14:01:27;;;;;;;;;;;;;;;4.16;41.51;100874.19;5100102;28;19919;-67
2022/01/22 14:04:08;;;;;;;;;;;;;;;4.19;40.43;100882.00;5109272;28;20418;-69
2022/01/22 14:06:34;;;;;;;;;;;;;;;4.15;40.61;100880.47;5104185;28;20371;-70
2022/01/22 14:09:16;;;;;;;;;;;;;;;4.13;39.98;100889.44;5111780;28;19922;-70
2022/01/22 14:12:00;;;;;;;;;;;;;;;4.15;39.02;100880.47;5102832;28;20031;-66
2022/01/22 14:14:26;;;;;;;;;;;;;;;4.12;39.94;100879.75;5102971;28;19922;-66
2022/01/22 14:17:09;;;;;;;;;;;;;;;4.10;40.38;100887.78;5106037;28;19920;-70
2022/01/22 14:19:34;;;;;;;;;;;;;;;4.13;40.46;100881.47;5109770;28;19947;-70
2022/01/22 14:22:00;;;;;;;;;;;;;;;4.11;40.92;100884.22;5103114;27;20041;-67
2022/01/22 14:24:30;;;;;;;;;;;;;;;4.10;41.07;100889.59;5080439;28;19912;-66
2022/01/22 14:26:55;;;;;;;;;;;;;;;4.08;41.39;100886.16;5095074;28;19912;-67
2022/01/22 14:29:20;;;;;;;;;;;;;;;4.08;41.44;100895.00;5100836;28;19916;-67
2022/01/22 14:31:50;;;;;;;;;;;;;;;4.07;41.16;100911.00;5097593;28;20399;-70
2022/01/22 14:34:31;;;;;;;;;;;;;;;4.04;40.68;100913.81;5088014;28;20154;-71
2022/01/22 14:36:56;;;;;;;;;;;;;;;4.03;40.34;100918.25;5086040;28;20049;-70